createdAt,value
2023-05-25T00:00:19.370Z,95.70
2023-05-25T00:02:46.696Z,95.70
2023-05-25T00:05:14.407Z,95.70
2023-05-25T00:07:41.415Z,95.70
2023-05-25T00:10:08.816Z,95.70
2023-05-25T00:12:36.737Z,95.70
2023-05-25T00:15:05.399Z,95.70
2023-05-25T00:17:32.427Z,95.70
2023-05-25T00:20:08.026Z,95.70
2023-05-25T00:22:38.523Z,95.70
2023-05-25T00:25:06.456Z,95.70
2023-05-25T00:27:33.342Z,95.70
2023-05-25T00:30:00.489Z,95.70
2023-05-25T00:32:27.484Z,95.70
2023-05-25T00:34:55.106Z,95.70
2023-05-25T00:37:21.989Z,95.70
2023-05-25T00:39:48.847Z,95.70
2023-05-25T00:42:15.928Z,95.70
2023-05-25T00:44:42.897Z,95.70
2023-05-25T00:47:11.640Z,95.70
2023-05-25T00:49:38.574Z,95.70
2023-05-25T00:52:05.824Z,95.70
2023-05-25T00:54:33.668Z,95.70
2023-05-25T00:57:06.332Z,95.70
2023-05-25T00:59:42.922Z,95.70
2023-05-25T01:02:12.017Z,95.70
2023-05-25T01:04:45.462Z,95.70
2023-05-25T01:07:17.668Z,95.70
2023-05-25T01:09:45.364Z,95.70
2023-05-25T01:12:14.431Z,95.70
2023-05-25T01:14:41.516Z,95.70
2023-05-25T01:17:11.423Z,95.70
2023-05-25T01:19:41.088Z,95.70
2023-05-25T01:22:38.500Z,95.70
2023-05-25T01:25:13.760Z,95.70
2023-05-25T01:28:03.970Z,95.70
2023-05-25T01:30:31.695Z,95.70
2023-05-25T01:32:59.621Z,95.70
2023-05-25T01:35:27.381Z,95.70
2023-05-25T01:37:54.343Z,95.70
2023-05-25T01:40:24.483Z,95.70
2023-05-25T01:42:51.334Z,95.70
2023-05-25T01:45:18.325Z,95.70
2023-05-25T01:47:55.613Z,95.70
2023-05-25T01:50:34.519Z,95.70
2023-05-25T01:53:13.957Z,95.70
2023-05-25T01:55:47.991Z,95.70
2023-05-25T01:58:16.209Z,95.70
2023-05-25T02:00:43.565Z,95.70
2023-05-25T02:03:10.559Z,95.70
2023-05-25T02:05:37.854Z,95.70
2023-05-25T02:08:04.993Z,95.70
2023-05-25T02:10:31.866Z,95.70
2023-05-25T02:12:58.753Z,95.70
2023-05-25T02:15:25.800Z,95.70
2023-05-25T02:17:52.662Z,95.70
2023-05-25T02:20:19.570Z,95.70
2023-05-25T02:22:46.518Z,95.70
2023-05-25T02:25:13.424Z,95.70
2023-05-25T02:27:40.422Z,95.70
2023-05-25T02:30:07.910Z,95.70
2023-05-25T02:32:35.299Z,95.70
2023-05-25T02:35:02.243Z,95.70
2023-05-25T02:37:29.129Z,95.70
2023-05-25T02:39:55.967Z,95.70
2023-05-25T02:42:22.811Z,95.70
2023-05-25T02:44:49.654Z,95.70
2023-05-25T02:47:17.925Z,95.70
2023-05-25T02:49:45.810Z,95.70
2023-05-25T02:52:12.763Z,95.70
2023-05-25T02:54:39.788Z,95.70
2023-05-25T02:57:06.614Z,95.70
2023-05-25T02:59:33.499Z,95.70
2023-05-25T03:02:00.386Z,95.70
2023-05-25T03:04:27.258Z,95.70
2023-05-25T03:06:54.110Z,95.70
2023-05-25T03:09:20.913Z,95.70
2023-05-25T03:11:47.740Z,95.70
2023-05-25T03:14:14.710Z,95.70
2023-05-25T03:16:41.566Z,95.70
2023-05-25T03:19:10.547Z,95.70
2023-05-25T03:21:38.103Z,95.70
2023-05-25T03:24:05.266Z,95.70
2023-05-25T03:26:32.810Z,95.70
2023-05-25T03:28:59.716Z,95.70
2023-05-25T03:31:26.877Z,95.70
2023-05-25T03:33:53.756Z,95.70
2023-05-25T03:36:22.169Z,95.70
2023-05-25T03:38:49.265Z,95.70
2023-05-25T03:41:16.105Z,95.70
2023-05-25T03:43:42.904Z,95.70
2023-05-25T03:46:11.663Z,95.70
2023-05-25T03:48:38.633Z,95.70
2023-05-25T03:51:06.323Z,95.70
2023-05-25T03:53:33.182Z,95.70
2023-05-25T03:56:00.336Z,95.70
2023-05-25T03:58:27.176Z,95.70
2023-05-25T04:00:55.045Z,95.70
2023-05-25T04:03:22.268Z,95.70
2023-05-25T04:05:50.062Z,95.70
2023-05-25T04:08:19.697Z,95.70
2023-05-25T04:10:46.916Z,95.70
2023-05-25T04:13:13.956Z,95.70
2023-05-25T04:15:40.804Z,95.70
2023-05-25T04:18:07.694Z,95.70
2023-05-25T04:20:34.498Z,95.70
2023-05-25T04:23:01.387Z,95.70
2023-05-25T04:25:29.725Z,95.70
2023-05-25T04:27:56.775Z,95.70
2023-05-25T04:30:24.000Z,95.70
2023-05-25T04:32:51.107Z,95.70
2023-05-25T04:35:20.876Z,95.70
2023-05-25T04:37:48.417Z,95.70
2023-05-25T04:40:15.308Z,95.70
2023-05-25T04:42:42.161Z,95.70
2023-05-25T04:45:10.530Z,95.70
2023-05-25T04:47:41.071Z,95.70
2023-05-25T04:50:10.041Z,95.70
2023-05-25T04:52:36.976Z,95.70
2023-05-25T04:55:03.952Z,95.70
2023-05-25T04:57:31.660Z,95.70
2023-05-25T04:59:58.818Z,95.70
2023-05-25T05:02:26.065Z,95.70
2023-05-25T05:04:53.879Z,95.70
2023-05-25T05:07:21.882Z,95.70
2023-05-25T05:09:49.489Z,95.70
2023-05-25T05:12:16.347Z,95.70
2023-05-25T05:14:43.218Z,95.70
2023-05-25T05:17:10.064Z,95.70
2023-05-25T05:19:37.092Z,95.70
2023-05-25T05:22:04.022Z,95.70
2023-05-25T05:24:30.807Z,95.70
2023-05-25T05:26:59.161Z,95.70
2023-05-25T05:29:28.183Z,95.70
2023-05-25T05:31:55.670Z,95.70
2023-05-25T05:34:22.601Z,95.70
2023-05-25T05:36:57.549Z,95.70
2023-05-25T05:39:25.443Z,95.70
2023-05-25T05:41:52.230Z,95.70
2023-05-25T05:44:21.287Z,95.70
2023-05-25T05:46:48.259Z,95.70
2023-05-25T05:49:15.466Z,95.70
2023-05-25T05:51:42.345Z,95.70
2023-05-25T05:54:09.237Z,95.70
2023-05-25T05:56:36.265Z,95.70
2023-05-25T05:59:03.049Z,95.70
2023-05-25T06:01:29.817Z,95.70
2023-05-25T06:03:56.687Z,95.70
2023-05-25T06:06:23.552Z,95.70
2023-05-25T06:08:51.124Z,95.70
2023-05-25T06:11:18.011Z,95.70
2023-05-25T06:13:46.452Z,95.70
2023-05-25T06:16:13.696Z,95.70
2023-05-25T06:18:40.736Z,95.70
2023-05-25T06:21:07.632Z,95.70
2023-05-25T06:23:34.498Z,95.70
2023-05-25T06:26:05.691Z,95.70
2023-05-25T06:28:32.669Z,95.70
2023-05-25T06:30:59.532Z,95.70
2023-05-25T06:33:26.440Z,95.70
2023-05-25T06:35:58.255Z,95.60
2023-05-25T06:38:25.218Z,95.70
2023-05-25T06:40:52.064Z,95.70
2023-05-25T06:43:18.933Z,95.70
2023-05-25T06:45:46.120Z,95.40
2023-05-25T06:48:13.246Z,94.80
2023-05-25T06:50:40.264Z,95.10
2023-05-25T06:53:07.146Z,95.10
2023-05-25T06:55:33.926Z,94.80
2023-05-25T06:58:00.832Z,94.40
2023-05-25T07:00:27.712Z,94.40
2023-05-25T07:02:54.605Z,93.00
2023-05-25T07:05:21.967Z,93.10
2023-05-25T07:07:48.914Z,92.30
2023-05-25T07:10:15.807Z,91.70
2023-05-25T07:12:42.625Z,91.70
2023-05-25T07:15:10.479Z,91.70
2023-05-25T07:17:37.401Z,91.70
2023-05-25T07:20:06.319Z,92.30
2023-05-25T07:22:33.309Z,90.90
2023-05-25T07:25:00.273Z,90.40
2023-05-25T07:27:27.135Z,90.40
2023-05-25T07:29:53.944Z,90.30
2023-05-25T07:32:20.976Z,90.60
2023-05-25T07:34:47.837Z,90.70
2023-05-25T07:37:14.703Z,90.50
2023-05-25T07:39:41.621Z,89.70
2023-05-25T07:42:08.485Z,88.90
2023-05-25T07:44:35.326Z,88.70
2023-05-25T07:47:02.218Z,90.20
2023-05-25T07:49:29.135Z,90.10
2023-05-25T07:51:55.929Z,88.80
2023-05-25T07:54:22.903Z,88.50
2023-05-25T07:56:49.849Z,89.00
2023-05-25T07:59:16.878Z,88.70
2023-05-25T08:01:43.840Z,88.10
2023-05-25T08:04:10.875Z,87.10
2023-05-25T08:06:38.596Z,87.20
2023-05-25T08:09:06.319Z,87.80
2023-05-25T08:11:33.322Z,86.30
2023-05-25T08:14:00.687Z,86.30
2023-05-25T08:16:27.632Z,85.90
2023-05-25T08:18:54.526Z,85.20
2023-05-25T08:21:21.413Z,85.30
2023-05-25T08:23:50.552Z,84.30
2023-05-25T08:28:47.321Z,84.30
2023-05-25T08:31:14.172Z,85.00
2023-05-25T08:33:41.387Z,85.30
2023-05-25T08:36:09.355Z,83.50
2023-05-25T08:38:36.292Z,82.60
2023-05-25T08:41:06.141Z,81.80
2023-05-25T08:43:34.093Z,83.40
2023-05-25T08:46:06.184Z,83.30
2023-05-25T08:48:41.715Z,83.50
2023-05-25T08:51:11.495Z,82.30
2023-05-25T08:53:41.224Z,81.80
2023-05-25T08:56:18.471Z,81.40
2023-05-25T08:58:57.966Z,82.50
2023-05-25T09:01:27.561Z,82.30
2023-05-25T09:03:56.781Z,81.80
2023-05-25T09:06:26.927Z,79.90
2023-05-25T09:08:54.575Z,79.80
2023-05-25T09:11:36.126Z,79.90
2023-05-25T09:14:07.643Z,79.60
2023-05-25T09:16:36.261Z,81.60
2023-05-25T09:19:03.069Z,81.30
2023-05-25T09:21:29.926Z,79.90
2023-05-25T09:23:56.882Z,80.30
2023-05-25T09:26:23.796Z,81.60
2023-05-25T09:28:50.706Z,80.30
2023-05-25T09:31:17.607Z,80.30
2023-05-25T09:33:45.977Z,79.80
2023-05-25T09:36:15.284Z,78.90
2023-05-25T09:38:42.325Z,79.60
2023-05-25T09:41:09.476Z,79.40
2023-05-25T09:43:44.723Z,79.60
2023-05-25T09:46:16.058Z,79.90
2023-05-25T09:48:43.660Z,79.20
2023-05-25T09:51:11.471Z,78.90
2023-05-25T09:53:38.350Z,77.10
2023-05-25T09:56:05.899Z,75.60
2023-05-25T09:58:32.832Z,75.50
2023-05-25T10:01:00.925Z,74.00
2023-05-25T10:03:27.916Z,73.90
2023-05-25T10:05:55.307Z,75.20
2023-05-25T10:08:23.456Z,74.20
2023-05-25T10:10:50.727Z,74.00
2023-05-25T10:13:22.893Z,75.20
2023-05-25T10:15:52.881Z,72.70
2023-05-25T10:18:24.372Z,71.50
2023-05-25T10:20:53.809Z,70.10
2023-05-25T10:23:21.955Z,71.20
2023-05-25T10:25:51.109Z,71.70
2023-05-25T10:28:26.785Z,73.50
2023-05-25T10:30:55.240Z,72.30
2023-05-25T10:33:22.651Z,71.40
2023-05-25T10:36:02.984Z,69.20
2023-05-25T10:38:36.174Z,70.00
2023-05-25T10:41:04.300Z,69.30
2023-05-25T10:43:31.517Z,69.10
2023-05-25T10:45:58.886Z,68.90
2023-05-25T10:48:36.362Z,72.20
2023-05-25T10:51:05.377Z,70.80
2023-05-25T10:53:32.371Z,71.00
2023-05-25T10:56:04.815Z,69.80
2023-05-25T10:58:32.514Z,68.10
2023-05-25T11:01:11.310Z,68.50
2023-05-25T11:03:44.734Z,69.30
2023-05-25T11:06:13.720Z,70.00
2023-05-25T11:08:59.526Z,69.40
2023-05-25T11:11:48.222Z,68.40
2023-05-25T11:14:30.336Z,68.50
2023-05-25T11:17:14.635Z,66.80
2023-05-25T11:19:50.805Z,66.70
2023-05-25T11:22:22.984Z,65.70
2023-05-25T11:24:53.808Z,67.60
2023-05-25T11:27:24.932Z,69.00
2023-05-25T11:29:52.691Z,69.40
2023-05-25T11:32:19.962Z,69.90
2023-05-25T11:34:54.054Z,72.70
2023-05-25T11:37:22.374Z,71.40
2023-05-25T11:39:51.622Z,73.10
2023-05-25T11:42:23.350Z,72.10
2023-05-25T11:44:51.470Z,71.30
2023-05-25T11:47:22.966Z,69.70
2023-05-25T11:49:50.722Z,72.20
2023-05-25T11:52:19.399Z,72.20
2023-05-25T11:54:46.744Z,70.70
2023-05-25T11:57:27.026Z,72.70
2023-05-25T11:59:55.579Z,73.20
2023-05-25T12:02:23.519Z,72.00
2023-05-25T12:05:04.238Z,71.70
2023-05-25T12:07:34.409Z,71.70
2023-05-25T12:10:09.577Z,71.00
2023-05-25T12:12:47.982Z,70.60
2023-05-25T12:15:22.303Z,72.20
2023-05-25T12:17:50.644Z,71.30
2023-05-25T12:20:20.796Z,71.70
2023-05-25T12:22:51.044Z,70.70
2023-05-25T12:25:24.463Z,71.10
2023-05-25T12:28:12.256Z,69.80
2023-05-25T12:30:42.979Z,71.30
2023-05-25T12:33:12.796Z,71.00
2023-05-25T12:35:49.967Z,69.40
2023-05-25T12:38:21.886Z,69.90
2023-05-25T12:41:04.280Z,72.30
2023-05-25T12:43:43.145Z,70.80
2023-05-25T12:46:10.080Z,69.80
2023-05-25T12:48:36.972Z,69.50
2023-05-25T12:51:06.729Z,70.90
2023-05-25T12:53:50.053Z,69.60
2023-05-25T12:56:17.054Z,69.40
2023-05-25T12:58:44.978Z,68.60
2023-05-25T13:01:12.313Z,68.00
2023-05-25T13:03:39.659Z,71.00
2023-05-25T13:06:07.018Z,70.90
2023-05-25T13:08:34.853Z,71.00
2023-05-25T13:11:03.656Z,68.30
2023-05-25T13:13:34.856Z,71.10
2023-05-25T13:16:01.803Z,71.60
2023-05-25T13:18:28.723Z,70.10
2023-05-25T13:20:59.574Z,71.00
2023-05-25T13:23:26.944Z,72.20
2023-05-25T13:25:54.399Z,69.10
2023-05-25T13:28:21.264Z,69.50
2023-05-25T13:30:48.064Z,69.50
2023-05-25T13:33:15.065Z,69.30
2023-05-25T13:35:46.394Z,69.60
2023-05-25T13:38:15.741Z,71.30
2023-05-25T13:40:48.016Z,70.40
2023-05-25T13:43:14.914Z,69.10
2023-05-25T13:45:41.957Z,71.20
2023-05-25T13:48:09.044Z,70.00
2023-05-25T13:50:36.202Z,71.90
2023-05-25T13:53:03.077Z,69.20
2023-05-25T13:55:29.906Z,69.60
2023-05-25T13:57:57.207Z,70.30
2023-05-25T14:00:24.148Z,68.90
2023-05-25T14:02:51.334Z,67.50
2023-05-25T14:05:19.794Z,69.70
2023-05-25T14:07:47.564Z,69.80
2023-05-25T14:10:14.765Z,68.70
2023-05-25T14:12:42.226Z,69.60
2023-05-25T14:15:09.399Z,69.40
2023-05-25T14:17:36.396Z,67.20
2023-05-25T14:20:06.417Z,67.90
2023-05-25T14:22:33.446Z,70.00
2023-05-25T14:25:00.318Z,68.00
2023-05-25T14:27:27.103Z,69.90
2023-05-25T14:29:53.961Z,68.10
2023-05-25T14:32:20.788Z,68.80
2023-05-25T14:34:47.665Z,68.00
2023-05-25T14:37:14.542Z,69.20
2023-05-25T14:39:41.378Z,70.70
2023-05-25T14:42:08.203Z,71.00
2023-05-25T14:44:35.068Z,70.70
2023-05-25T14:47:01.883Z,70.70
2023-05-25T14:49:29.316Z,69.70
2023-05-25T14:51:56.174Z,68.60
2023-05-25T14:54:23.054Z,67.30
2023-05-25T14:56:49.895Z,69.00
2023-05-25T14:59:16.825Z,70.40
2023-05-25T15:01:43.723Z,69.40
2023-05-25T15:04:10.857Z,69.60
2023-05-25T15:06:39.338Z,69.00
2023-05-25T15:09:06.858Z,70.60
2023-05-25T15:11:33.642Z,71.60
2023-05-25T15:14:00.668Z,66.90
2023-05-25T15:16:27.644Z,68.50
2023-05-25T15:18:54.538Z,70.20
2023-05-25T15:21:21.454Z,70.10
2023-05-25T15:23:48.258Z,67.60
2023-05-25T15:26:15.164Z,68.30
2023-05-25T15:28:41.957Z,67.90
2023-05-25T15:31:08.808Z,70.50
2023-05-25T15:33:50.192Z,70.30
2023-05-25T15:36:23.364Z,70.60
2023-05-25T15:38:50.259Z,69.90
2023-05-25T15:41:17.498Z,69.00
2023-05-25T15:43:58.010Z,70.00
2023-05-25T15:46:25.327Z,70.40
2023-05-25T15:48:52.219Z,69.20
2023-05-25T15:51:19.073Z,70.00
2023-05-25T15:53:46.925Z,69.80
2023-05-25T15:56:15.781Z,71.50
2023-05-25T15:58:42.640Z,69.30
2023-05-25T16:01:11.282Z,70.70
2023-05-25T16:03:42.169Z,71.10
2023-05-25T16:06:10.128Z,72.50
2023-05-25T16:08:37.177Z,71.10
2023-05-25T16:11:04.093Z,71.70
2023-05-25T16:13:30.911Z,69.80
2023-05-25T16:15:57.851Z,69.30
2023-05-25T16:18:24.791Z,70.50
2023-05-25T16:20:55.958Z,71.90
2023-05-25T16:23:23.470Z,71.70
2023-05-25T16:25:50.710Z,73.00
2023-05-25T16:28:17.642Z,72.40
2023-05-25T16:30:44.473Z,73.40
2023-05-25T16:33:11.382Z,72.30
2023-05-25T16:35:38.260Z,73.90
2023-05-25T16:38:05.068Z,74.10
2023-05-25T16:40:33.382Z,73.90
2023-05-25T16:43:00.383Z,73.30
2023-05-25T16:45:27.203Z,72.70
2023-05-25T16:47:54.065Z,73.60
2023-05-25T16:50:20.885Z,72.60
2023-05-25T16:52:47.731Z,72.90
2023-05-25T16:55:16.111Z,73.20
2023-05-25T16:57:42.983Z,74.00
2023-05-25T17:00:10.431Z,73.50
2023-05-25T17:02:37.487Z,73.80
2023-05-25T17:05:06.556Z,74.10
2023-05-25T17:07:33.950Z,75.50
2023-05-25T17:10:00.956Z,74.10
2023-05-25T17:12:27.812Z,73.10
2023-05-25T17:14:54.648Z,73.80
2023-05-25T17:17:21.484Z,74.70
2023-05-25T17:19:48.364Z,76.30
2023-05-25T17:22:15.239Z,74.60
2023-05-25T17:24:42.092Z,74.60
2023-05-25T17:27:27.088Z,76.00
2023-05-25T17:29:53.991Z,75.40
2023-05-25T17:32:20.891Z,76.50
2023-05-25T17:34:47.913Z,75.50
2023-05-25T17:37:14.792Z,76.00
2023-05-25T17:39:42.687Z,76.30
2023-05-25T17:42:09.600Z,76.90
2023-05-25T17:44:40.192Z,77.10
2023-05-25T17:47:09.163Z,75.90
2023-05-25T17:49:37.654Z,75.50
2023-05-25T17:52:04.808Z,75.50
2023-05-25T17:54:31.607Z,76.20
2023-05-25T17:56:58.483Z,76.50
2023-05-25T17:59:25.349Z,76.50
2023-05-25T18:01:52.230Z,76.80
2023-05-25T18:04:19.695Z,77.00
2023-05-25T18:06:47.490Z,76.60
2023-05-25T18:09:14.270Z,77.20
2023-05-25T18:11:41.100Z,76.60
2023-05-25T18:14:07.973Z,76.90
2023-05-25T18:16:39.520Z,76.40
2023-05-25T18:19:07.057Z,77.10
2023-05-25T18:21:49.100Z,77.40
2023-05-25T18:24:15.923Z,77.50
2023-05-25T18:26:42.799Z,77.20
2023-05-25T18:29:09.759Z,76.40
2023-05-25T18:31:39.431Z,76.30
2023-05-25T18:34:07.120Z,76.50
2023-05-25T18:36:33.968Z,76.60
2023-05-25T18:39:00.797Z,77.00
2023-05-25T18:41:27.625Z,77.60
2023-05-25T18:43:55.003Z,77.50
2023-05-25T18:46:22.301Z,77.80
2023-05-25T18:48:49.202Z,77.90
2023-05-25T18:51:17.113Z,77.90
2023-05-25T18:53:44.828Z,78.30
2023-05-25T18:56:11.941Z,78.60
2023-05-25T18:58:38.827Z,78.90
2023-05-25T19:01:05.653Z,79.20
2023-05-25T19:03:32.557Z,79.30
2023-05-25T19:05:59.566Z,79.80
2023-05-25T19:08:26.353Z,80.20
2023-05-25T19:10:53.158Z,80.10
2023-05-25T19:13:22.740Z,80.10
2023-05-25T19:15:50.539Z,80.00
2023-05-25T19:18:17.470Z,80.20
2023-05-25T19:20:44.438Z,80.80
2023-05-25T19:23:11.524Z,80.80
2023-05-25T19:25:38.349Z,81.20
2023-05-25T19:28:05.145Z,81.50
2023-05-25T19:30:33.177Z,81.40
2023-05-25T19:33:00.177Z,81.90
2023-05-25T19:35:27.017Z,82.50
2023-05-25T19:37:54.022Z,82.80
2023-05-25T19:40:20.875Z,82.90
2023-05-25T19:42:47.810Z,83.30
2023-05-25T19:45:14.861Z,83.10
2023-05-25T19:47:41.714Z,83.40
2023-05-25T19:50:08.816Z,83.20
2023-05-25T19:52:37.272Z,83.20
2023-05-25T19:55:04.217Z,83.40
2023-05-25T19:57:31.104Z,83.30
2023-05-25T19:59:58.017Z,83.10
2023-05-25T20:02:24.923Z,83.20
2023-05-25T20:04:51.833Z,82.70
2023-05-25T20:07:18.877Z,82.90
2023-05-25T20:09:46.229Z,83.70
2023-05-25T20:12:14.852Z,83.70
2023-05-25T20:14:42.848Z,83.40
2023-05-25T20:17:10.179Z,83.00
2023-05-25T20:19:37.187Z,82.70
2023-05-25T20:22:06.188Z,82.70
2023-05-25T20:24:33.209Z,83.00
2023-05-25T20:27:00.197Z,82.50
2023-05-25T20:29:27.474Z,82.20
2023-05-25T20:31:54.428Z,81.90
2023-05-25T20:34:21.358Z,81.40
2023-05-25T20:36:48.268Z,81.90
2023-05-25T20:39:16.020Z,82.30
2023-05-25T20:41:42.980Z,81.60
2023-05-25T20:44:10.116Z,82.10
2023-05-25T20:46:37.082Z,82.60
2023-05-25T20:49:04.009Z,82.90
2023-05-25T20:51:31.327Z,83.00
2023-05-25T20:53:58.204Z,83.10
2023-05-25T20:56:28.046Z,83.20
2023-05-25T20:58:54.922Z,83.50
2023-05-25T21:01:21.862Z,83.80
2023-05-25T21:03:48.964Z,84.30
2023-05-25T21:06:16.103Z,84.80
2023-05-25T21:08:43.053Z,84.40
2023-05-25T21:11:09.970Z,84.50
2023-05-25T21:13:36.949Z,84.30
2023-05-25T21:16:03.845Z,84.90
2023-05-25T21:18:30.691Z,85.40
2023-05-25T21:20:57.545Z,85.20
2023-05-25T21:23:25.323Z,85.70
2023-05-25T21:25:52.176Z,85.90
2023-05-25T21:28:22.548Z,86.00
2023-05-25T21:30:49.738Z,86.50
2023-05-25T21:33:16.590Z,86.40
2023-05-25T21:35:43.628Z,86.60
2023-05-25T21:38:10.798Z,86.90
2023-05-25T21:40:37.645Z,87.00
2023-05-25T21:43:04.597Z,87.50
2023-05-25T21:45:31.418Z,87.60
2023-05-25T21:47:58.323Z,87.30
2023-05-25T21:50:25.825Z,88.00
2023-05-25T21:52:52.675Z,88.00
2023-05-25T21:55:19.631Z,88.20
2023-05-25T21:57:46.488Z,88.20
2023-05-25T22:00:14.526Z,88.70
2023-05-25T22:02:41.555Z,89.00
2023-05-25T22:05:08.570Z,88.80
2023-05-25T22:07:35.518Z,88.80
2023-05-25T22:10:02.496Z,89.00
2023-05-25T22:12:29.317Z,89.10
2023-05-25T22:14:56.230Z,89.40
2023-05-25T22:17:23.074Z,89.60
2023-05-25T22:20:03.305Z,89.90
